Time;durP1;ratioP1;P1;durP2;ratioP2;P2;SDS_P1;SDS_P2;PMS_P1;PMS_P2;Temp;Humidity;BMP_temperature;BMP_pressure;BME280_temperature;BME280_humidity;BME280_pressure;Samples;Min_cycle;Max_cycle;Signal;HPM_P1;HPM_P2
2022/11/27 00:01:51;;;;;;;18.27;5.53;;;;;;;9.95;nan;102292.38;6107423;23;20416;-89
2022/11/27 00:04:19;;;;;;;15.93;6.47;;;;;;;9.91;nan;102289.09;6107786;23;20898;-89
2022/11/27 00:06:49;;;;;;;11.87;5.63;;;;;;;9.86;nan;102287.81;6107850;23;20730;-90
2022/11/27 00:09:16;;;;;;;10.73;5.03;;;;;;;9.83;nan;102288.13;6107683;23;20456;-90
2022/11/27 00:11:44;;;;;;;9.30;5.70;;;;;;;9.80;nan;102288.44;6084037;23;20421;-90
2022/11/27 00:14:13;;;;;;;18.60;7.63;;;;;;;9.83;nan;102293.59;6108012;23;20381;-89
2022/11/27 00:16:47;;;;;;;17.53;7.40;;;;;;;9.81;nan;102303.81;6107827;23;20476;-90
2022/11/27 00:19:15;;;;;;;13.93;4.80;;;;;;;9.72;nan;102286.47;6106888;23;20404;-88
2022/11/27 00:21:43;;;;;;;18.20;7.40;;;;;;;9.73;nan;102290.91;6130958;23;20409;-89
2022/11/27 00:24:11;;;;;;;8.67;4.63;;;;;;;9.70;nan;102283.03;6107505;23;20397;-87
2022/11/27 00:26:38;;;;;;;17.07;10.20;;;;;;;9.62;nan;102282.94;6083755;23;20412;-88
2022/11/27 00:29:07;;;;;;;17.37;8.23;;;;;;;9.66;nan;102287.91;6107473;23;20444;-89
2022/11/27 00:31:37;;;;;;;12.20;5.30;;;;;;;9.68;nan;102304.16;6084219;23;20409;-88
2022/11/27 00:34:06;;;;;;;7.37;2.77;;;;;;;9.64;nan;102297.25;6043691;23;20419;-88
2022/11/27 00:36:34;;;;;;;78.43;43.97;;;;;;;9.57;nan;102288.81;6043739;23;20415;-88
2022/11/27 00:39:03;;;;;;;31.37;16.57;;;;;;;9.50;nan;102287.69;6043107;23;20411;-88
2022/11/27 00:41:31;;;;;;;35.40;16.50;;;;;;;9.53;nan;102290.13;6066830;23;20479;-88
2022/11/27 00:43:59;;;;;;;17.30;8.40;;;;;;;9.55;nan;102300.91;6043561;23;20934;-88
2022/11/27 00:46:28;;;;;;;13.83;6.10;;;;;;;9.52;nan;102307.50;6043726;23;20419;-89
2022/11/27 00:48:58;;;;;;;13.13;6.57;;;;;;;9.49;nan;102291.44;6043101;23;20411;-88
2022/11/27 00:51:26;;;;;;;14.67;7.50;;;;;;;9.40;nan;102275.09;6082268;23;20408;-88
2022/11/27 00:53:54;;;;;;;28.20;11.00;;;;;;;9.38;nan;102277.97;6083192;23;20798;-88
2022/11/27 00:56:24;;;;;;;14.20;7.80;;;;;;;9.43;nan;102286.56;6082846;23;20393;-88
2022/11/27 00:58:51;;;;;;;13.13;6.17;;;;;;;9.29;nan;102262.47;6083259;23;20413;-89
2022/11/27 01:01:29;;;;;;;12.07;6.30;;;;;;;9.36;nan;102274.53;6083356;23;20483;-88
2022/11/27 01:03:58;;;;;;;19.50;7.10;;;;;;;9.40;nan;102277.84;6106681;23;20405;-88
2022/11/27 01:06:27;;;;;;;5.40;3.10;;;;;;;9.32;nan;102275.84;6083056;23;20413;-88
2022/11/27 01:08:57;;;;;;;8.00;3.37;;;;;;;9.24;nan;102273.84;6107052;23;20492;-88
2022/11/27 01:11:27;;;;;;;5.40;2.60;;;;;;;9.18;nan;102270.84;6107523;23;20440;-87
2022/11/27 01:13:57;;;;;;;5.43;2.03;;;;;;;9.18;nan;102268.13;6131719;23;20496;-88
2022/11/27 01:16:26;;;;;;;6.00;2.60;;;;;;;9.18;nan;102273.59;6082989;23;20394;-89
2022/11/27 01:18:56;;;;;;;5.63;1.70;;;;;;;9.13;nan;102274.00;6083443;23;20801;-88
2022/11/27 01:21:25;;;;;;;7.17;2.40;;;;;;;9.07;nan;102265.53;6109241;23;20511;-89
2022/11/27 01:23:55;;;;;;;13.23;2.30;;;;;;;9.06;nan;102269.28;6136103;23;20727;-88
2022/11/27 01:26:23;;;;;;;12.10;1.67;;;;;;;9.08;nan;102275.44;6112115;23;20412;-88
2022/11/27 01:28:53;;;;;;;8.20;1.70;;;;;;;9.04;nan;102257.69;6160453;23;20737;-88
2022/11/27 01:31:23;;;;;;;5.37;2.20;;;;;;;9.09;nan;102277.16;6136011;23;20451;-87
2022/11/27 01:33:52;;;;;;;6.80;2.90;;;;;;;9.08;nan;102264.53;6077056;23;20745;-88
2022/11/27 01:36:20;;;;;;;15.17;4.00;;;;;;;9.09;nan;102260.81;6053521;23;20418;-89
2022/11/27 01:38:50;;;;;;;7.20;1.70;;;;;;;9.07;nan;102262.81;6076442;23;20406;-88
2022/11/27 01:41:22;;;;;;;4.90;2.23;;;;;;;9.07;nan;102260.94;6077026;23;20887;-87
2022/11/27 01:44:01;;;;;;;7.10;3.33;;;;;;;9.02;nan;102246.06;6076611;23;20406;-87
2022/11/27 01:46:37;;;;;;;10.73;5.03;;;;;;;9.15;nan;102260.22;6054030;23;20410;-87
2022/11/27 01:49:07;;;;;;;9.03;4.50;;;;;;;9.15;nan;102254.78;6100073;23;20810;-88
2022/11/27 01:51:41;;;;;;;8.83;4.83;;;;;;;9.09;nan;102245.31;6119728;23;20408;-88
2022/11/27 01:54:09;;;;;;;11.60;4.97;;;;;;;9.10;nan;102243.44;6136496;23;20891;-86
2022/11/27 01:56:38;;;;;;;12.90;4.57;;;;;;;9.09;nan;102239.00;6111863;23;20400;-88
2022/11/27 01:59:06;;;;;;;4.10;2.33;;;;;;;9.04;nan;102244.91;6112276;23;20404;-88
2022/11/27 02:01:35;;;;;;;5.13;1.93;;;;;;;9.03;nan;102242.31;6135658;23;20411;-88
2022/11/27 02:04:02;;;;;;;6.00;1.80;;;;;;;8.92;nan;102237.88;6111842;23;20412;-88
2022/11/27 02:06:30;;;;;;;4.20;1.57;;;;;;;8.94;nan;102236.75;6111634;23;20408;-88
2022/11/27 02:08:59;;;;;;;5.60;1.83;;;;;;;8.96;nan;102234.72;6111555;23;20423;-88
2022/11/27 02:11:33;;;;;;;4.87;1.40;;;;;;;8.98;nan;102238.16;6111671;23;20954;-88
2022/11/27 02:14:27;;;;;;;3.53;1.57;;;;;;;9.00;nan;102238.88;6136551;23;20739;-87
2022/11/27 02:16:58;;;;;;;6.40;1.43;;;;;;;8.99;nan;102245.34;6135879;23;20726;-88
2022/11/27 02:20:06;;;;;;;4.73;1.80;;;;;;;8.98;nan;102234.59;6185913;23;20879;-89
2022/11/27 02:23:18;;;;;;;9.63;2.80;;;;;;;8.97;nan;102247.34;6070276;23;20425;-88
2022/11/27 02:25:57;;;;;;;14.77;3.30;;;;;;;8.94;nan;102244.91;6084728;23;20406;-87
2022/11/27 02:28:41;;;;;;;9.30;2.13;;;;;;;8.92;nan;102246.94;6094820;23;20422;-88
2022/11/27 02:31:42;;;;;;;5.53;1.20;;;;;;;8.88;nan;102248.22;5985761;23;20882;-87
2022/11/27 02:34:15;;;;;;;11.20;1.40;;;;;;;8.85;nan;102248.50;5935204;23;20408;-88
2022/11/27 02:36:47;;;;;;;7.40;2.40;;;;;;;8.76;nan;102227.59;6009402;23;20417;-88
2022/11/27 02:39:18;;;;;;;4.90;1.50;;;;;;;8.91;nan;102238.88;5985651;23;20433;-88
2022/11/27 02:42:30;;;;;;;13.10;2.13;;;;;;;8.97;nan;102244.63;5962902;23;20413;-88
2022/11/27 02:45:04;;;;;;;5.57;2.30;;;;;;;8.96;nan;102228.41;5985862;23;20764;-88
2022/11/27 02:47:32;;;;;;;5.60;2.67;;;;;;;8.98;nan;102235.44;5987593;23;20416;-87
2022/11/27 02:50:00;;;;;;;4.50;2.47;;;;;;;8.92;nan;102238.75;6077978;23;20539;-88
2022/11/27 02:52:27;;;;;;;9.43;3.50;;;;;;;8.86;nan;102225.69;6073318;23;20589;-88
2022/11/27 02:54:56;;;;;;;5.77;2.70;;;;;;;8.85;nan;102236.78;6073305;23;20417;-88
2022/11/27 02:57:25;;;;;;;7.63;3.17;;;;;;;8.81;nan;102236.19;6063051;23;20408;-88
2022/11/27 02:59:54;;;;;;;10.27;3.80;;;;;;;8.84;nan;102238.63;6116543;23;20408;-89
2022/11/27 03:02:26;;;;;;;7.40;3.17;;;;;;;8.78;nan;102231.03;6114481;23;20419;-88
2022/11/27 03:04:54;;;;;;;5.90;3.57;;;;;;;8.81;nan;102225.28;6114874;23;20491;-87
2022/11/27 03:07:28;;;;;;;6.80;3.53;;;;;;;8.81;nan;102225.28;6113474;23;20388;-88
2022/11/27 03:09:57;;;;;;;12.40;3.97;;;;;;;8.79;nan;102221.84;6138516;23;20570;-88
2022/11/27 03:12:25;;;;;;;7.53;3.83;;;;;;;8.72;nan;102215.25;6113960;23;20404;-88
2022/11/27 03:14:53;;;;;;;12.77;4.70;;;;;;;8.71;nan;102218.97;6112779;23;20419;-88
2022/11/27 03:17:35;;;;;;;9.07;4.10;;;;;;;8.66;nan;102205.78;6113630;23;20408;-88
2022/11/27 03:20:20;;;;;;;9.37;3.83;;;;;;;8.72;nan;102212.53;6137397;23;20428;-88
2022/11/27 03:22:49;;;;;;;8.87;4.07;;;;;;;8.66;nan;102204.91;6115879;23;20404;-88
2022/11/27 03:25:18;;;;;;;15.00;4.17;;;;;;;8.69;nan;102210.09;6187346;23;20400;-88
2022/11/27 03:27:57;;;;;;;7.60;3.23;;;;;;;8.68;nan;102202.91;6113480;23;20389;-88
2022/11/27 03:30:25;;;;;;;10.23;2.43;;;;;;;8.62;nan;102214.41;6113581;23;20426;-88
2022/11/27 03:32:53;;;;;;;9.40;3.40;;;;;;;8.48;nan;102198.47;6113503;23;20404;-89
2022/11/27 03:35:25;;;;;;;7.13;2.80;;;;;;;8.57;nan;102200.34;6113324;23;20393;-88
2022/11/27 03:37:53;;;;;;;6.87;2.50;;;;;;;8.57;nan;102208.53;6136819;23;20727;-86
2022/11/27 03:40:21;;;;;;;11.67;2.20;;;;;;;8.57;nan;102212.13;6113413;23;20396;-88
2022/11/27 03:43:14;;;;;;;4.27;2.30;;;;;;;8.57;nan;102212.13;6113513;23;20408;-87
2022/11/27 03:45:52;;;;;;;6.23;1.30;;;;;;;8.54;nan;102206.09;6187356;23;20396;-88
2022/11/27 03:49:02;;;;;;;3.87;1.43;;;;;;;8.49;nan;102195.63;6137291;23;20399;-88
2022/11/27 03:51:55;;;;;;;3.97;2.00;;;;;;;8.50;nan;102202.78;6015023;23;20456;-88
2022/11/27 03:54:42;;;;;;;6.30;2.90;;;;;;;8.52;nan;102189.03;5994101;23;20420;-88
2022/11/27 03:57:33;;;;;;;3.20;1.87;;;;;;;8.50;nan;102196.47;5992382;23;20785;-88
2022/11/27 04:00:03;;;;;;;3.17;1.77;;;;;;;8.43;nan;102176.28;5992176;23;20404;-88
2022/11/27 04:02:41;;;;;;;5.40;2.17;;;;;;;8.46;nan;102186.91;5993293;23;20495;-88
2022/11/27 04:05:09;;;;;;;7.33;2.77;;;;;;;8.42;nan;102186.31;5969327;23;20423;-88
2022/11/27 04:07:38;;;;;;;6.30;2.50;;;;;;;8.42;nan;102182.75;5969700;23;20424;-88
2022/11/27 04:10:06;;;;;;;5.83;1.97;;;;;;;8.39;nan;102169.41;5992327;23;20516;-88
2022/11/27 04:12:35;;;;;;;6.47;2.53;;;;;;;8.37;nan;102158.66;5992447;23;20401;-87
2022/11/27 04:15:04;;;;;;;11.83;4.10;;;;;;;8.36;nan;102156.94;5992145;23;20413;-88
2022/11/27 04:17:32;;;;;;;7.00;2.93;;;;;;;8.41;nan;102164.66;5992086;23;20423;-89
2022/11/27 04:19:59;;;;;;;5.00;2.57;;;;;;;8.33;nan;102149.03;5968500;23;20519;-88
2022/11/27 04:22:27;;;;;;;3.53;2.07;;;;;;;8.39;nan;102155.78;6053625;23;20413;-88
2022/11/27 04:24:55;;;;;;;6.30;2.67;;;;;;;8.37;nan;102158.66;6112378;23;20412;-87
2022/11/27 04:27:23;;;;;;;3.97;1.70;;;;;;;8.24;nan;102145.31;6112654;23;20408;-87
2022/11/27 04:29:51;;;;;;;6.10;2.40;;;;;;;8.32;nan;102169.09;6112627;23;20407;-88
2022/11/27 04:32:18;;;;;;;9.30;2.00;;;;;;;8.27;nan;102163.22;6136375;23;20408;-87
2022/11/27 04:34:46;;;;;;;9.17;3.00;;;;;;;8.26;nan;102167.81;6112190;23;20412;-86
2022/11/27 04:37:13;;;;;;;5.40;1.93;;;;;;;8.22;nan;102171.81;6112561;23;20415;-88
2022/11/27 04:39:41;;;;;;;10.40;1.67;;;;;;;8.16;nan;102164.22;6112661;23;20409;-88
2022/11/27 04:42:09;;;;;;;5.70;1.40;;;;;;;8.17;nan;102171.38;6112290;23;20399;-87
2022/11/27 04:44:41;;;;;;;4.80;1.43;;;;;;;8.17;nan;102165.94;6112755;23;20408;-87
2022/11/27 04:47:09;;;;;;;2.70;1.50;;;;;;;8.16;nan;102158.75;6136469;23;20412;-88
2022/11/27 04:49:36;;;;;;;3.73;1.37;;;;;;;8.16;nan;102166.06;6112543;23;20412;-87
2022/11/27 04:52:04;;;;;;;4.10;1.60;;;;;;;8.09;nan;102152.16;6112959;23;20437;-87
2022/11/27 04:54:40;;;;;;;2.37;1.33;;;;;;;8.14;nan;102165.34;6112412;23;20416;-88
2022/11/27 04:57:09;;;;;;;14.67;1.60;;;;;;;8.12;nan;102159.19;6136624;23;20918;-88
2022/11/27 04:59:37;;;;;;;3.10;1.70;;;;;;;8.11;nan;102161.06;6136373;23;20445;-87
2022/11/27 05:02:05;;;;;;;4.53;1.67;;;;;;;8.09;nan;102163.06;6135531;23;20408;-87
2022/11/27 05:04:32;;;;;;;3.70;1.70;;;;;;;8.07;nan;102165.09;6136238;23;20404;-88
2022/11/27 05:07:00;;;;;;;4.27;1.70;;;;;;;8.02;nan;102156.47;6111797;23;20411;-88
2022/11/27 05:09:28;;;;;;;2.70;1.70;;;;;;;8.09;nan;102178.53;6111447;23;20415;-88
2022/11/27 05:11:55;;;;;;;4.73;1.50;;;;;;;8.06;nan;102174.25;6136032;23;20444;-87
2022/11/27 05:14:27;;;;;;;5.73;1.73;;;;;;;7.99;nan;102178.53;6112641;23;20726;-87
2022/11/27 05:16:57;;;;;;;9.00;1.60;;;;;;;8.00;nan;102171.22;6136824;23;20431;-87
2022/11/27 05:19:27;;;;;;;4.40;1.50;;;;;;;8.08;nan;102177.66;6112060;23;20393;-88
2022/11/27 05:21:56;;;;;;;4.60;1.87;;;;;;;8.02;nan;102170.09;6112402;23;20887;-87
2022/11/27 05:24:25;;;;;;;2.93;1.30;;;;;;;8.06;nan;102179.69;6136665;23;20408;-89
2022/11/27 05:26:54;;;;;;;4.47;1.90;;;;;;;8.08;nan;102182.28;6111897;23;20416;-88
2022/11/27 05:29:24;;;;;;;3.17;1.47;;;;;;;8.07;nan;102186.88;6136022;23;20463;-88
2022/11/27 05:31:53;;;;;;;3.47;1.60;;;;;;;7.98;nan;102171.38;6111943;23;20429;-88
2022/11/27 05:34:27;;;;;;;5.30;1.90;;;;;;;8.05;nan;102183.44;6112297;23;20408;-88
2022/11/27 05:36:58;;;;;;;5.63;2.80;;;;;;;8.05;nan;102183.44;6111575;23;20400;-89
2022/11/27 05:39:27;;;;;;;8.90;4.80;;;;;;;8.01;nan;102176.53;6136581;23;20415;-89
2022/11/27 05:41:55;;;;;;;9.70;3.30;;;;;;;8.06;nan;102184.28;6111915;23;20427;-87
2022/11/27 05:44:25;;;;;;;6.47;1.93;;;;;;;8.02;nan;102178.25;6112239;23;20412;-88
2022/11/27 05:46:53;;;;;;;5.13;2.80;;;;;;;8.00;nan;102179.41;6136073;23;20420;-89
2022/11/27 05:49:21;;;;;;;2.53;1.77;;;;;;;8.00;nan;102177.53;6112340;23;20495;-89
2022/11/27 05:51:52;;;;;;;2.73;1.60;;;;;;;7.94;nan;102181.69;6111914;23;20432;-88
2022/11/27 05:54:42;;;;;;;5.00;2.10;;;;;;;7.89;nan;102172.19;6019630;23;20412;-88
2022/11/27 05:57:11;;;;;;;3.50;1.57;;;;;;;7.86;nan;102170.66;6066718;23;20406;-88
2022/11/27 05:59:43;;;;;;;4.40;1.70;;;;;;;7.90;nan;102168.47;5997730;23;20411;-88
2022/11/27 06:02:13;;;;;;;6.70;1.73;;;;;;;7.87;nan;102168.78;6042700;23;20430;-87
2022/11/27 06:04:47;;;;;;;3.50;1.30;;;;;;;7.74;nan;102152.72;6043505;23;20907;-88
2022/11/27 06:07:15;;;;;;;5.80;1.70;;;;;;;7.78;nan;102169.63;6019061;23;20411;-88
2022/11/27 06:09:43;;;;;;;7.63;1.40;;;;;;;7.74;nan;102173.63;5996148;23;20470;-88
2022/11/27 06:12:21;;;;;;;5.13;2.57;;;;;;;7.68;nan;102163.31;5995874;23;20451;-89
2022/11/27 06:14:48;;;;;;;6.33;1.50;;;;;;;7.65;nan;102158.16;6066095;23;20903;-88
2022/11/27 06:17:16;;;;;;;3.43;1.40;;;;;;;7.76;nan;102171.63;6019253;23;20396;-87
2022/11/27 06:19:43;;;;;;;5.30;2.00;;;;;;;7.79;nan;102179.50;6088903;23;20436;-87
2022/11/27 06:22:20;;;;;;;3.67;1.77;;;;;;;7.77;nan;102176.06;6111935;23;20408;-87
2022/11/27 06:24:49;;;;;;;4.50;1.60;;;;;;;7.78;nan;102170.47;6186224;23;20892;-88
2022/11/27 06:27:16;;;;;;;3.10;1.80;;;;;;;7.69;nan;102159.59;6112117;23;20404;-88
2022/11/27 06:29:44;;;;;;;4.63;1.90;;;;;;;7.81;nan;102175.66;6111654;23;20411;-87
2022/11/27 06:32:13;;;;;;;4.27;1.73;;;;;;;7.81;nan;102180.22;6111956;23;20444;-87
2022/11/27 06:34:40;;;;;;;8.70;1.80;;;;;;;7.82;nan;102181.94;6135997;23;21141;-88
2022/11/27 06:37:10;;;;;;;5.77;2.13;;;;;;;7.82;nan;102193.69;6111531;23;20546;-87
2022/11/27 06:39:40;;;;;;;6.60;1.60;;;;;;;7.79;nan;102179.50;6136570;23;20482;-87
2022/11/27 06:42:07;;;;;;;2.70;1.30;;;;;;;7.77;nan;102179.66;6136087;23;20420;-88
2022/11/27 06:44:35;;;;;;;3.30;1.83;;;;;;;7.81;nan;102177.50;6111529;23;20404;-87
2022/11/27 06:47:03;;;;;;;3.60;1.57;;;;;;;7.80;nan;102179.38;6112607;23;20475;-87
2022/11/27 06:49:33;;;;;;;3.10;1.40;;;;;;;7.68;nan;102175.06;6112487;23;20894;-87
2022/11/27 06:52:01;;;;;;;7.67;2.73;;;;;;;7.75;nan;102197.13;6111430;23;20444;-88
2022/11/27 06:54:29;;;;;;;4.30;1.77;;;;;;;7.70;nan;102175.75;6111765;23;20910;-88
2022/11/27 06:56:59;;;;;;;3.50;1.23;;;;;;;7.63;nan;102178.19;6136154;23;20397;-90
2022/11/27 06:59:28;;;;;;;4.13;1.20;;;;;;;7.66;nan;102187.09;6160614;23;20408;-87
2022/11/27 07:01:55;;;;;;;3.50;1.43;;;;;;;7.60;nan;102177.59;6111408;23;20419;-88
2022/11/27 07:04:24;;;;;;;4.60;1.67;;;;;;;7.60;nan;102183.91;6111805;23;20729;-87
2022/11/27 07:07:01;;;;;;;5.03;1.80;;;;;;;7.62;nan;102197.38;6159723;23;20475;-88
2022/11/27 07:09:30;;;;;;;2.00;1.17;;;;;;;7.57;nan;102199.66;6159204;23;20404;-89
2022/11/27 07:11:58;;;;;;;3.07;1.50;;;;;;;7.55;nan;102202.50;6112530;23;20443;-88
2022/11/27 07:14:26;;;;;;;2.83;1.53;;;;;;;7.51;nan;102194.75;6109643;23;20413;-88
2022/11/27 07:16:53;;;;;;;10.07;1.70;;;;;;;7.48;nan;102187.75;6111621;23;20410;-89
2022/11/27 07:19:25;;;;;;;2.67;1.40;;;;;;;7.34;nan;102171.78;6110318;23;20455;-89
2022/11/27 07:21:53;;;;;;;4.90;1.57;;;;;;;7.50;nan;102199.34;6106696;23;20390;-88
2022/11/27 07:24:21;;;;;;;2.57;1.23;;;;;;;7.47;nan;102185.16;6082364;23;20491;-88
2022/11/27 07:26:49;;;;;;;4.50;1.40;;;;;;;7.53;nan;102201.78;6082731;23;20404;-88
2022/11/27 07:29:18;;;;;;;5.17;2.27;;;;;;;7.52;nan;102201.91;6083056;23;20481;-89
2022/11/27 07:31:45;;;;;;;4.27;1.60;;;;;;;7.42;nan;102182.84;6082874;23;20447;-87
2022/11/27 07:34:17;;;;;;;3.63;1.50;;;;;;;7.54;nan;102192.63;5999549;23;20491;-88
2022/11/27 07:36:52;;;;;;;9.27;1.90;;;;;;;7.59;nan;102198.50;6021081;23;20412;-88
2022/11/27 07:39:19;;;;;;;9.37;2.30;;;;;;;7.65;nan;102202.53;6043912;23;20411;-88
2022/11/27 07:42:06;;;;;;;7.80;1.40;;;;;;;7.68;nan;102213.16;6008326;23;20404;-87
2022/11/27 07:44:54;;;;;;;2.27;1.27;;;;;;;7.69;nan;102203.13;6008978;23;20435;-87
2022/11/27 07:47:23;;;;;;;6.90;1.90;;;;;;;7.78;nan;102210.44;6020874;23;20407;-87
2022/11/27 07:49:54;;;;;;;6.40;1.60;;;;;;;7.81;nan;102213.75;5997195;23;20556;-87
2022/11/27 07:52:22;;;;;;;6.23;2.30;;;;;;;7.82;nan;102211.88;6085224;23;20471;-87
2022/11/27 07:54:49;;;;;;;3.63;1.77;;;;;;;7.87;nan;102212.34;6131816;23;20409;-87
2022/11/27 07:57:20;;;;;;;9.37;2.40;;;;;;;7.90;nan;102207.44;6082863;23;20413;-87
2022/11/27 07:59:49;;;;;;;8.03;2.10;;;;;;;7.93;nan;102212.63;6107815;23;20402;-89
2022/11/27 08:02:16;;;;;;;5.43;2.00;;;;;;;8.03;nan;102218.09;6107820;23;20734;-88
2022/11/27 08:04:47;;;;;;;8.43;2.43;;;;;;;8.06;nan;102217.81;6107092;23;20516;-87
2022/11/27 08:07:17;;;;;;;10.53;3.13;;;;;;;8.11;nan;102210.06;6131635;23;20413;-88
2022/11/27 08:09:45;;;;;;;14.37;4.17;;;;;;;8.14;nan;102208.91;6130730;23;20421;-88
2022/11/27 08:12:13;;;;;;;14.23;4.27;;;;;;;8.19;nan;102207.50;6083706;23;20535;-88
2022/11/27 08:14:41;;;;;;;11.60;5.30;;;;;;;8.36;nan;102222.31;6083782;23;20812;-90
2022/11/27 08:17:11;;;;;;;23.90;8.40;;;;;;;8.44;nan;102221.59;6083843;23;20488;-88
2022/11/27 08:19:40;;;;;;;16.23;7.63;;;;;;;8.57;nan;102224.88;6109982;23;20413;-88
2022/11/27 08:22:13;;;;;;;20.67;6.40;;;;;;;8.61;nan;102219.00;6136113;23;20412;-88
2022/11/27 08:24:41;;;;;;;18.73;7.33;;;;;;;8.72;nan;102226.16;6136314;23;20487;-88
2022/11/27 08:27:09;;;;;;;13.80;5.17;;;;;;;8.87;nan;102224.69;6112372;23;20416;-87
2022/11/27 08:29:37;;;;;;;12.00;4.10;;;;;;;8.97;nan;102227.41;6136109;23;20918;-87
2022/11/27 08:32:08;;;;;;;8.47;3.53;;;;;;;9.07;nan;102230.09;6136286;23;20526;-86
2022/11/27 08:34:36;;;;;;;8.80;4.90;;;;;;;9.16;nan;102234.69;6160886;23;20887;-87
2022/11/27 08:37:08;;;;;;;12.13;4.93;;;;;;;9.27;nan;102238.06;6136587;23;20487;-90
2022/11/27 08:39:36;;;;;;;10.30;4.80;;;;;;;9.33;nan;102237.50;6160899;23;20411;-88
2022/11/27 08:42:05;;;;;;;19.90;6.70;;;;;;;9.47;nan;102240.72;6112214;23;20421;-89
2022/11/27 08:44:34;;;;;;;15.97;6.83;;;;;;;9.55;nan;102236.25;6160259;23;20742;-89
2022/11/27 08:47:02;;;;;;;12.17;5.77;;;;;;;9.69;nan;102245.81;6112772;23;20404;-89
2022/11/27 08:49:31;;;;;;;11.53;4.57;;;;;;;9.80;nan;102250.22;6112605;23;20408;-88
2022/11/27 08:51:59;;;;;;;17.77;4.47;;;;;;;9.90;nan;102249.16;6160926;23;20451;-86
2022/11/27 08:54:27;;;;;;;10.73;4.73;;;;;;;9.92;nan;102238.94;6112970;23;20389;-89
2022/11/27 08:56:54;;;;;;;8.80;5.23;;;;;;;10.14;nan;102253.19;6136569;23;20400;-88
2022/11/27 08:59:22;;;;;;;14.23;6.07;;;;;;;10.24;nan;102254.84;6136592;23;20555;-89
2022/11/27 09:01:51;;;;;;;12.80;5.90;;;;;;;10.35;nan;102242.84;6136405;23;20536;-89
2022/11/27 09:04:21;;;;;;;12.43;4.97;;;;;;;10.51;nan;102245.72;6159606;23;20420;-89
2022/11/27 09:06:49;;;;;;;13.30;5.87;;;;;;;10.63;nan;102246.34;6136332;23;20483;-88
2022/11/27 09:09:20;;;;;;;13.20;6.83;;;;;;;10.77;nan;102248.53;6137562;23;20490;-87
2022/11/27 09:11:47;;;;;;;13.73;7.70;;;;;;;10.83;nan;102242.41;6111693;23;20443;-88
2022/11/27 09:14:15;;;;;;;10.40;7.03;;;;;;;10.96;nan;102245.63;6111910;23;20491;-88
2022/11/27 09:16:43;;;;;;;11.83;8.27;;;;;;;10.98;nan;102240.81;6136239;23;20742;-87
2022/11/27 09:19:12;;;;;;;14.23;7.80;;;;;;;11.21;nan;102253.97;6112315;23;20777;-89
2022/11/27 09:21:40;;;;;;;16.97;8.10;;;;;;;11.35;nan;102256.97;6185940;23;20511;-88
2022/11/27 09:24:18;;;;;;;11.30;6.57;;;;;;;11.53;nan;102259.66;6160823;23;20404;-88
2022/11/27 09:26:46;;;;;;;20.47;7.07;;;;;;;11.71;nan;102257.69;6160828;23;20550;-88
2022/11/27 09:29:16;;;;;;;10.90;5.53;;;;;;;11.91;nan;102257.47;6112656;23;20757;-89
2022/11/27 09:31:43;;;;;;;10.20;5.23;;;;;;;12.09;nan;102252.72;6111898;23;20527;-89
2022/11/27 09:34:13;;;;;;;8.57;4.40;;;;;;;12.25;nan;102261.00;6136035;23;20451;-90
2022/11/27 09:36:44;;;;;;;13.00;4.13;;;;;;;12.38;nan;102255.88;6114182;23;20407;-90
2022/11/27 09:39:13;;;;;;;10.30;4.23;;;;;;;12.53;nan;102260.69;6111999;23;20491;-87
2022/11/27 09:41:55;;;;;;;9.77;4.50;;;;;;;12.70;nan;102267.94;6112260;23;20400;-87
2022/11/27 09:44:22;;;;;;;22.10;8.20;;;;;;;12.85;nan;102268.09;6112109;23;20400;-87
2022/11/27 09:46:51;;;;;;;22.13;7.23;;;;;;;12.95;nan;102264.13;6160581;23;20491;-88
2022/11/27 09:49:34;;;;;;;21.70;8.47;;;;;;;13.06;nan;102250.09;6135226;23;20412;-88
2022/11/27 09:52:11;;;;;;;22.57;7.43;;;;;;;13.25;nan;102253.53;6134981;23;20954;-89
2022/11/27 09:54:47;;;;;;;20.07;7.03;;;;;;;13.36;nan;102261.38;6135071;23;20477;-89
2022/11/27 09:57:19;;;;;;;11.27;6.00;;;;;;;13.51;nan;102258.75;6138235;23;20411;-88
2022/11/27 09:59:50;;;;;;;14.43;5.60;;;;;;;13.66;nan;102263.34;6109673;23;20414;-89
2022/11/27 10:02:33;;;;;;;13.30;6.17;;;;;;;13.83;nan;102259.53;6111301;23;20503;-88
2022/11/27 10:05:03;;;;;;;17.00;7.60;;;;;;;14.00;nan;102256.69;6042634;23;20502;-87
2022/11/27 10:07:51;;;;;;;15.67;7.80;;;;;;;14.17;nan;102261.94;6001166;23;20407;-88
2022/11/27 10:10:31;;;;;;;21.10;9.53;;;;;;;14.37;nan;102261.47;5997826;23;20407;-88
2022/11/27 10:13:11;;;;;;;12.67;5.97;;;;;;;14.54;nan;102263.09;6018014;23;20529;-88
2022/11/27 10:15:53;;;;;;;11.83;5.10;;;;;;;14.72;nan;102260.06;6040919;23;20423;-89
2022/11/27 10:18:25;;;;;;;16.37;4.80;;;;;;;14.91;nan;102265.06;6042152;23;20423;-88
2022/11/27 10:20:56;;;;;;;12.23;4.80;;;;;;;15.06;nan;102259.59;6019632;23;20435;-87
2022/11/27 10:24:15;;;;;;;12.30;3.67;;;;;;;15.26;nan;102263.50;6088674;23;20504;-88
2022/11/27 10:26:47;;;;;;;11.03;4.07;;;;;;;15.41;nan;102264.38;6041872;23;20412;-87
2022/11/27 10:29:33;;;;;;;14.67;4.60;;;;;;;15.53;nan;102253.78;6019596;23;20950;-88
2022/11/27 10:32:32;;;;;;;32.63;4.40;;;;;;;15.68;nan;102251.91;6042232;23;20981;-88
2022/11/27 10:35:29;;;;;;;11.27;4.20;;;;;;;15.85;nan;102247.03;6025524;23;20962;-88
2022/11/27 10:38:12;;;;;;;12.50;3.10;;;;;;;15.92;nan;102241.63;6040318;23;20834;-87
2022/11/27 10:41:02;;;;;;;6.43;2.80;;;;;;;16.04;nan;102246.44;5994462;23;20423;-88
2022/11/27 10:43:29;;;;;;;8.33;2.83;;;;;;;16.18;nan;102247.44;6040551;23;20463;-87
2022/11/27 10:45:58;;;;;;;10.00;3.20;;;;;;;16.24;nan;102232.88;6017305;23;20431;-86
2022/11/27 10:48:29;;;;;;;16.40;3.67;;;;;;;16.42;nan;102249.00;6040246;23;20419;-87
2022/11/27 10:50:57;;;;;;;14.50;2.97;;;;;;;16.54;nan;102234.50;6018159;23;20498;-86
2022/11/27 10:53:33;;;;;;;9.80;3.20;;;;;;;16.70;nan;102240.84;6017152;23;20447;-86
2022/11/27 10:56:14;;;;;;;8.10;2.40;;;;;;;16.80;nan;102236.69;6040736;23;20415;-88
2022/11/27 10:58:53;;;;;;;8.00;2.50;;;;;;;16.93;nan;102241.50;6041591;23;20412;-87
2022/11/27 11:01:21;;;;;;;7.80;2.47;;;;;;;17.02;nan;102243.03;6049020;23;20495;-88
2022/11/27 11:04:03;;;;;;;14.60;3.13;;;;;;;17.12;nan;102246.31;6017157;23;20420;-87
2022/11/27 11:06:51;;;;;;;13.53;2.80;;;;;;;17.30;nan;102237.53;6025100;23;20408;-89
2022/11/27 11:09:23;;;;;;;12.90;2.50;;;;;;;17.43;nan;102236.75;6043147;23;20490;-87
2022/11/27 11:11:52;;;;;;;10.80;2.27;;;;;;;17.54;nan;102233.41;6042288;23;20419;-87
2022/11/27 11:14:23;;;;;;;8.77;2.23;;;;;;;17.66;nan;102239.28;6042904;23;20499;-87
2022/11/27 11:16:53;;;;;;;11.83;3.07;;;;;;;17.75;nan;102244.41;6019777;23;20426;-87
2022/11/27 11:19:32;;;;;;;9.20;2.87;;;;;;;17.81;nan;102237.22;6019979;23;20419;-87
2022/11/27 11:22:03;;;;;;;7.27;1.90;;;;;;;17.91;nan;102233.00;6020476;23;20591;-87
2022/11/27 11:24:35;;;;;;;8.03;2.23;;;;;;;17.97;nan;102213.88;6022487;23;20411;-86
2022/11/27 11:27:25;;;;;;;7.53;1.93;;;;;;;18.13;nan;102219.03;6020299;23;20901;-87
2022/11/27 11:30:19;;;;;;;7.20;2.37;;;;;;;18.23;nan;102217.59;6138203;23;20411;-87
2022/11/27 11:32:48;;;;;;;10.90;2.97;;;;;;;18.35;nan;102215.06;6141298;23;20530;-88
2022/11/27 11:35:28;;;;;;;8.67;2.73;;;;;;;18.47;nan;102212.56;6113487;23;20468;-86
2022/11/27 11:37:58;;;;;;;13.33;2.87;;;;;;;18.56;nan;102209.38;6136705;23;20434;-87
2022/11/27 11:40:29;;;;;;;8.97;1.90;;;;;;;18.63;nan;102207.50;6160370;23;20438;-87
2022/11/27 11:42:59;;;;;;;7.60;2.20;;;;;;;18.72;nan;102198.97;6137092;23;20407;-87
2022/11/27 11:45:29;;;;;;;6.37;2.00;;;;;;;18.76;nan;102189.19;6161751;23;20491;-87
2022/11/27 11:48:00;;;;;;;8.73;2.47;;;;;;;18.82;nan;102188.34;6137777;23;20475;-86
2022/11/27 11:50:39;;;;;;;7.73;2.00;;;;;;;18.94;nan;102186.63;6138028;23;20410;-87
2022/11/27 11:53:15;;;;;;;12.80;2.50;;;;;;;19.00;nan;102180.22;6136422;23;20442;-87
2022/11/27 11:56:19;;;;;;;13.30;2.10;;;;;;;19.14;nan;102187.44;6137094;23;20415;-87
2022/11/27 11:59:01;;;;;;;7.93;2.50;;;;;;;19.29;nan;102187.22;6104698;23;20426;-86
2022/11/27 12:01:58;;;;;;;8.57;2.57;;;;;;;19.43;nan;102179.72;6160632;23;20411;-87
2022/11/27 12:05:13;;;;;;;8.00;2.97;;;;;;;19.53;nan;102169.06;6135661;23;20784;-87
2022/11/27 12:07:57;;;;;;;10.43;2.33;;;;;;;19.57;nan;102170.31;6149270;23;20491;-87
2022/11/27 12:10:37;;;;;;;14.03;2.80;;;;;;;19.66;nan;102171.78;6161145;23;20408;-88